Time;durP1;ratioP1;P1;durP2;ratioP2;P2;SDS_P1;SDS_P2;PMS_P1;PMS_P2;Temp;Humidity;BMP_temperature;BMP_pressure;BME280_temperature;BME280_humidity;BME280_pressure;Samples;Min_cycle;Max_cycle;Signal;HPM_P1;HPM_P2
2023/12/02 00:02:23;;;;;;;54.80;27.60;;;;;;;10.64;61.84;99935.77;106223;1254;67115;-83
2023/12/02 00:04:51;;;;;;;52.80;26.50;;;;;;;10.72;61.26;99937.33;106185;1261;71604;-82
2023/12/02 00:07:22;;;;;;;50.40;25.70;;;;;;;10.77;61.16;99928.56;106216;1256;61369;-82
2023/12/02 00:09:50;;;;;;;46.30;25.90;;;;;;;10.85;60.51;99922.29;106365;1253;61398;-82
2023/12/02 00:12:18;;;;;;;53.30;26.50;;;;;;;10.82;60.54;99928.79;106236;1253;74741;-83
2023/12/02 00:14:46;;;;;;;50.40;24.70;;;;;;;10.90;60.26;99944.36;106336;1254;67649;-83
2023/12/02 00:17:13;;;;;;;48.20;24.30;;;;;;;10.85;60.61;99956.68;106298;1254;72648;-82
2023/12/02 00:19:41;;;;;;;47.70;24.70;;;;;;;10.78;60.92;99954.85;106585;1253;61265;-83
2023/12/02 00:22:09;;;;;;;49.00;23.80;;;;;;;10.79;61.22;99960.95;106296;1259;61264;-82
2023/12/02 00:24:37;;;;;;;47.90;23.50;;;;;;;10.83;60.82;99955.11;106312;1254;76317;-82
2023/12/02 00:27:04;;;;;;;48.20;24.90;;;;;;;10.70;61.31;99956.59;106039;1254;68420;-82
2023/12/02 00:29:32;;;;;;;45.50;23.80;;;;;;;10.63;61.60;99959.08;106147;1253;71768;-82
2023/12/02 00:32:00;;;;;;;45.30;25.30;;;;;;;10.50;62.20;99950.16;106218;1254;61282;-82
2023/12/02 00:34:27;;;;;;;46.80;23.70;;;;;;;10.16;63.66;99958.15;106344;1253;61330;-82
2023/12/02 00:36:56;;;;;;;44.40;24.10;;;;;;;10.24;63.99;99964.67;106103;1253;74586;-82
2023/12/02 00:39:23;;;;;;;41.40;22.30;;;;;;;10.41;62.98;99966.60;106205;1259;68451;-82
2023/12/02 00:41:51;;;;;;;43.10;23.00;;;;;;;10.52;62.23;99968.28;106285;1259;71446;-82
2023/12/02 00:44:20;;;;;;;43.50;22.90;;;;;;;10.42;62.45;99964.23;106278;1257;61125;-83
2023/12/02 00:46:47;;;;;;;40.70;21.10;;;;;;;10.35;62.90;99966.77;106157;1255;61238;-83
2023/12/02 00:49:15;;;;;;;41.60;21.80;;;;;;;10.14;63.91;99963.67;106139;1254;74680;-82
2023/12/02 00:51:43;;;;;;;43.00;21.30;;;;;;;9.95;65.00;99966.73;106885;1254;68465;-82
2023/12/02 00:54:11;;;;;;;40.50;20.20;;;;;;;10.07;64.57;99967.73;106392;1254;72740;-81
2023/12/02 00:56:38;;;;;;;45.70;22.30;;;;;;;10.00;64.99;99968.98;106327;1254;61362;-82
2023/12/02 00:59:06;;;;;;;41.10;21.90;;;;;;;9.86;65.67;99966.23;106300;1254;61253;-82
2023/12/02 01:01:34;;;;;;;38.90;19.50;;;;;;;9.95;65.37;99955.55;106194;1254;74624;-83
2023/12/02 12:31:43;;;;;;;20.60;10.80;;;;;;;9.32;67.77;99932.29;106222;1254;61605;-80
2023/12/02 12:34:18;;;;;;;24.50;11.50;;;;;;;9.33;67.52;99932.17;106309;1254;74861;-81
2023/12/02 12:36:52;;;;;;;25.60;13.10;;;;;;;9.42;67.20;99937.48;106884;1255;68388;-80
2023/12/02 12:39:25;;;;;;;24.00;12.20;;;;;;;9.51;66.37;99932.95;106187;1257;72534;-80
2023/12/02 12:42:00;;;;;;;23.00;12.80;;;;;;;9.56;66.33;99936.30;106180;1253;61314;-80
2023/12/02 12:44:33;;;;;;;25.60;12.20;;;;;;;9.55;66.29;99933.97;106202;1254;61253;-79
2023/12/02 12:47:11;;;;;;;22.50;12.20;;;;;;;9.43;66.40;99928.17;106135;1253;74709;-80
2023/12/02 12:49:45;;;;;;;21.90;10.60;;;;;;;9.62;65.48;99926.38;106605;1260;66556;-77
2023/12/02 12:52:23;;;;;;;21.10;10.00;;;;;;;9.61;65.30;99925.40;105817;1262;72732;-80
2023/12/02 12:54:58;;;;;;;24.20;11.70;;;;;;;9.58;65.66;99919.27;106270;1260;61212;-79
2023/12/02 12:57:35;;;;;;;23.20;10.90;;;;;;;9.63;65.67;99921.91;106147;1254;61192;-79
2023/12/02 13:00:10;;;;;;;24.10;11.80;;;;;;;9.70;65.73;99911.70;106432;1260;76970;-79
2023/12/02 13:03:02;;;;;;;24.60;11.60;;;;;;;9.76;65.45;99908.30;106468;1261;68569;-79
2023/12/02 13:05:34;;;;;;;21.80;11.20;;;;;;;9.83;64.96;99892.31;106214;1254;71732;-78
2023/12/02 13:08:24;;;;;;;;;;;;;;;9.74;65.55;99882.40;106267;1259;61341;-78
2023/12/02 13:10:53;;;;;;;25.20;12.90;;;;;;;9.74;65.80;99877.44;106427;1257;61240;-77
2023/12/02 13:13:21;;;;;;;21.90;10.40;;;;;;;9.85;65.23;99883.77;106278;1254;73449;-78
2023/12/02 13:15:53;;;;;;;22.20;10.60;;;;;;;9.92;64.67;99879.88;106314;1259;68411;-78
2023/12/02 13:18:25;;;;;;;;;;;;;;;9.97;64.08;99885.08;106115;1256;72480;-78
2023/12/02 13:20:57;;;;;;;23.40;11.30;;;;;;;9.90;64.44;99891.84;106184;1262;61353;-78
2023/12/02 13:23:29;;;;;;;23.20;11.10;;;;;;;9.72;65.02;99890.61;106247;1253;61215;-78
2023/12/02 13:26:02;;;;;;;24.60;11.30;;;;;;;9.63;65.56;99890.73;106355;1256;74660;-78
2023/12/02 13:28:37;;;;;;;21.70;11.90;;;;;;;9.78;64.70;99887.29;106211;1259;67237;-78
2023/12/02 13:31:10;;;;;;;20.60;10.30;;;;;;;9.84;64.27;99879.41;106419;1260;72674;-78
2023/12/02 13:34:00;;;;;;;26.90;11.80;;;;;;;9.73;64.30;99884.77;106878;1256;61307;-78
2023/12/02 13:36:32;;;;;;;22.00;10.60;;;;;;;9.80;63.94;99890.21;106345;1255;61199;-78
2023/12/02 13:39:07;;;;;;;;;;;;;;;9.90;63.53;99888.20;106219;1260;74702;-78
2023/12/02 13:41:51;;;;;;;18.30;9.20;;;;;;;9.88;63.26;99879.32;106215;1260;68367;-78
2023/12/02 13:44:22;;;;;;;21.10;10.40;;;;;;;9.84;63.59;99883.40;106412;1261;71283;-78
2023/12/02 13:47:08;;;;;;;19.50;8.90;;;;;;;10.00;62.58;99880.39;106258;1260;61247;-78
2023/12/02 13:49:45;;;;;;;19.10;9.40;;;;;;;10.00;62.51;99874.06;106507;1259;61160;-78
2023/12/02 13:52:35;;;;;;;18.00;9.10;;;;;;;10.02;62.33;99879.77;105482;1256;74744;-79
2023/12/02 13:55:29;;;;;;;18.40;9.00;;;;;;;10.02;62.50;99870.48;106205;1260;68399;-77
2023/12/02 13:58:07;;;;;;;20.30;10.10;;;;;;;10.00;62.27;99865.17;106284;1260;72678;-77
2023/12/02 14:00:57;;;;;;;16.70;8.90;;;;;;;10.00;62.36;99865.83;106249;1257;61326;-77
2023/12/02 14:03:37;;;;;;;20.70;10.20;;;;;;;9.95;62.35;99864.46;106200;1259;61282;-77
2023/12/02 14:06:12;;;;;;;20.30;10.50;;;;;;;9.85;63.00;99865.42;106344;1255;73440;-78
2023/12/02 14:08:42;;;;;;;19.30;10.30;;;;;;;9.98;62.65;99874.64;106245;1260;67428;-77
2023/12/02 14:11:14;;;;;;;21.70;9.70;;;;;;;9.87;62.91;99860.61;106283;1257;72952;-77
2023/12/02 14:14:15;;;;;;;18.70;9.40;;;;;;;9.83;63.18;99861.25;106228;1260;61372;-77
2023/12/02 14:17:01;;;;;;;18.50;9.10;;;;;;;9.90;62.96;99863.08;106336;1259;61222;-78
2023/12/02 14:20:12;;;;;;;18.80;8.90;;;;;;;10.14;61.71;99854.41;106194;1254;74599;-77
2023/12/02 14:23:28;;;;;;;17.00;9.10;;;;;;;10.20;61.40;99852.87;106286;1259;67238;-78
2023/12/02 14:26:11;;;;;;;19.80;9.30;;;;;;;10.40;60.32;99853.75;105789;1267;75021;-78
2023/12/02 14:28:45;;;;;;;18.80;9.90;;;;;;;10.21;60.77;99857.17;106348;1260;61262;-78
2023/12/02 14:31:44;;;;;;;18.10;8.90;;;;;;;10.30;60.36;99863.73;106266;1260;61350;-78
2023/12/02 14:34:35;;;;;;;;;;;;;;;10.32;59.83;99858.77;106227;1260;73832;-78
2023/12/02 14:37:31;;;;;;;18.30;8.80;;;;;;;10.24;60.36;99853.21;106326;1254;68777;-78
2023/12/02 14:39:58;;;;;;;21.60;10.70;;;;;;;10.17;60.60;99850.34;106252;1260;74273;-76
2023/12/02 14:42:35;;;;;;;22.40;10.10;;;;;;;9.98;61.53;99843.90;105865;1262;61340;-76
2023/12/02 14:45:06;;;;;;;23.20;11.30;;;;;;;10.04;61.56;99846.67;106223;1260;61219;-77
2023/12/02 14:47:41;;;;;;;21.80;10.40;;;;;;;10.02;61.55;99836.23;106357;1263;74613;-77
2023/12/02 14:50:13;;;;;;;19.30;10.50;;;;;;;10.19;61.22;99832.30;106349;1256;68344;-77
2023/12/02 14:52:46;;;;;;;25.40;11.30;;;;;;;10.10;61.49;99829.06;106383;1260;72961;-77
2023/12/02 14:55:16;;;;;;;21.40;10.70;;;;;;;10.14;61.65;99828.27;106220;1260;63113;-78
2023/12/02 14:57:44;;;;;;;22.40;11.50;;;;;;;10.10;61.86;99822.30;106618;1260;61347;-78
2023/12/02 15:00:18;;;;;;;21.60;10.60;;;;;;;10.28;61.40;99814.77;106269;1256;74657;-77
2023/12/02 15:02:49;;;;;;;20.70;10.20;;;;;;;10.42;60.58;99810.80;106109;1259;66762;-78
2023/12/02 15:05:18;;;;;;;21.80;10.40;;;;;;;10.44;60.45;99798.98;106326;1256;73019;-77
2023/12/02 15:07:52;;;;;;;23.20;11.30;;;;;;;10.29;61.18;99799.54;106784;1254;61219;-78
2023/12/02 15:10:25;;;;;;;19.10;10.30;;;;;;;10.17;61.62;99812.17;106251;1260;61341;-77
2023/12/02 15:13:12;;;;;;;25.50;11.00;;;;;;;10.29;61.57;99822.69;105769;1254;74714;-77
2023/12/02 15:15:41;;;;;;;24.70;11.20;;;;;;;10.26;61.36;99828.01;105766;1259;67446;-77
2023/12/02 15:18:19;;;;;;;23.30;10.70;;;;;;;10.30;61.31;99822.50;105830;1260;71463;-78
2023/12/02 15:21:07;;;;;;;22.00;10.80;;;;;;;10.29;61.44;99829.13;105801;1259;61160;-78
2023/12/02 15:23:42;;;;;;;23.70;11.50;;;;;;;10.21;61.97;99838.95;105907;1256;61164;-78
2023/12/02 15:26:17;;;;;;;30.10;11.50;;;;;;;10.44;61.22;99852.52;105907;1259;76973;-77
2023/12/02 15:28:47;;;;;;;21.70;10.90;;;;;;;10.54;60.84;99849.09;105904;1254;70095;-77
2023/12/02 15:31:23;;;;;;;22.50;11.30;;;;;;;10.59;60.53;99853.23;105778;1260;73723;-79
2023/12/02 15:33:55;;;;;;;22.80;10.60;;;;;;;10.65;60.06;99852.64;105623;1265;63201;-79
2023/12/02 15:36:25;;;;;;;26.40;11.30;;;;;;;10.67;59.85;99847.98;105780;1260;61330;-77
2023/12/02 15:38:58;;;;;;;23.30;10.60;;;;;;;10.68;59.83;99831.79;105826;1258;73452;-77
2023/12/02 15:41:30;;;;;;;23.90;10.70;;;;;;;10.51;60.53;99832.25;105833;1260;71120;-77
2023/12/02 15:43:58;;;;;;;26.30;11.20;;;;;;;10.44;60.90;99845.34;105724;1261;74163;-78
2023/12/02 15:46:28;;;;;;;20.80;10.50;;;;;;;10.40;61.22;99845.83;105865;1254;61154;-79
2023/12/02 15:49:03;;;;;;;25.50;13.20;;;;;;;10.40;61.54;99830.27;105822;1259;62689;-79
2023/12/02 15:51:37;;;;;;;30.10;15.00;;;;;;;10.58;60.79;99825.77;105856;1254;78789;-80
2023/12/02 15:54:05;;;;;;;25.50;12.40;;;;;;;10.65;60.38;99832.11;106118;1261;68871;-77
2023/12/02 15:56:33;;;;;;;26.00;11.80;;;;;;;10.66;60.51;99836.68;106139;1258;70505;-77
2023/12/02 15:59:01;;;;;;;24.40;11.40;;;;;;;10.74;60.24;99839.67;106156;1258;62014;-77
2023/12/02 16:01:45;;;;;;;23.80;12.10;;;;;;;10.65;60.59;99840.91;106111;1254;62269;-78
2023/12/02 16:04:14;;;;;;;25.90;12.20;;;;;;;10.78;60.29;99838.53;106199;1254;74790;-78
2023/12/02 16:06:47;;;;;;;25.40;12.10;;;;;;;10.77;60.27;99839.85;106162;1260;69433;-79
2023/12/02 16:09:26;;;;;;;25.00;11.80;;;;;;;10.71;60.60;99841.59;106434;1260;73162;-80
2023/12/02 16:12:00;;;;;;;25.80;11.10;;;;;;;10.48;61.74;99845.67;107511;1257;61221;-79
2023/12/02 16:14:29;;;;;;;24.30;11.50;;;;;;;10.40;62.25;99840.59;106732;1254;61308;-80
2023/12/02 16:16:57;;;;;;;29.00;12.50;;;;;;;10.38;62.53;99832.48;106368;1254;73423;-79
2023/12/02 16:19:31;;;;;;;26.20;12.70;;;;;;;10.19;63.48;99830.23;106458;1254;70484;-81
2023/12/02 16:21:59;;;;;;;26.20;12.40;;;;;;;10.15;64.22;99826.17;106260;1261;72657;-79
2023/12/02 16:24:33;;;;;;;25.70;12.60;;;;;;;10.20;64.25;99828.58;106136;1256;61280;-81
2023/12/02 16:27:07;;;;;;;25.60;11.50;;;;;;;10.06;65.16;99826.84;106003;1255;61324;-80
2023/12/02 16:29:35;;;;;;;25.50;11.80;;;;;;;10.12;65.15;99822.33;106220;1255;74625;-79
2023/12/02 16:32:04;;;;;;;26.00;12.50;;;;;;;10.12;65.50;99814.30;106098;1254;67569;-79
2023/12/02 16:34:46;;;;;;;28.80;12.80;;;;;;;10.17;65.35;99818.63;106364;1255;71797;-80
2023/12/02 16:37:26;;;;;;;28.60;13.40;;;;;;;10.21;65.34;99814.84;106133;1260;61342;-80
2023/12/02 16:40:06;;;;;;;27.10;12.20;;;;;;;10.09;66.05;99806.49;106723;1254;61311;-80
2023/12/02 16:42:34;;;;;;;25.10;12.30;;;;;;;10.21;65.35;99800.77;106318;1253;74359;-80
2023/12/02 16:45:24;;;;;;;27.10;11.90;;;;;;;10.18;65.70;99802.02;106353;1257;68739;-80
2023/12/02 16:48:06;;;;;;;25.60;12.40;;;;;;;10.08;66.67;99810.70;106416;1254;74814;-79
2023/12/02 16:57:26;;;;;;;60.90;27.30;;;;;;;9.77;69.48;99802.16;103216;1291;600916;-79
2023/12/02 17:00:00;;;;;;;52.20;24.40;;;;;;;9.69;70.32;99788.73;105284;1267;60578;-80
2023/12/02 17:02:44;;;;;;;30.50;13.50;;;;;;;9.84;69.57;99783.52;105435;1266;60886;-79
2023/12/02 17:05:36;;;;;;;28.20;13.10;;;;;;;9.87;69.54;99784.85;105192;1271;71043;-81
2023/12/02 17:08:30;;;;;;;24.20;11.60;;;;;;;9.79;70.02;99780.26;105359;1271;68693;-79
2023/12/02 17:11:09;;;;;;;27.20;12.80;;;;;;;9.89;69.58;99773.04;105149;1268;215078;-80
2023/12/02 17:13:46;;;;;;;27.40;13.60;;;;;;;9.90;69.41;99777.13;105685;1268;59318;-79
2023/12/02 17:16:35;;;;;;;31.70;14.90;;;;;;;9.84;70.15;99770.80;105446;1269;59339;-81
2023/12/02 17:19:19;;;;;;;28.60;12.40;;;;;;;9.83;70.21;99762.30;105441;1264;71070;-79
2023/12/02 17:21:54;;;;;;;25.60;13.60;;;;;;;9.80;70.54;99766.66;105486;1264;70635;-79
2023/12/02 17:24:43;;;;;;;31.80;14.00;;;;;;;9.84;70.69;99771.95;105484;1266;74598;-80
2023/12/02 17:27:46;;;;;;;28.60;14.20;;;;;;;9.89;70.51;99768.83;105481;1264;59664;-79
2023/12/02 17:30:26;;;;;;;30.40;13.10;;;;;;;9.79;71.05;99762.08;105428;1270;61156;-79
2023/12/02 17:33:06;;;;;;;30.50;15.10;;;;;;;9.97;70.24;99749.31;105565;1264;73914;-79
2023/12/02 17:35:40;;;;;;;31.40;15.40;;;;;;;9.98;69.98;99737.66;105475;1267;70633;-81
2023/12/02 17:38:14;;;;;;;30.40;14.20;;;;;;;10.01;70.08;99732.72;105467;1267;73702;-79
2023/12/02 17:40:54;;;;;;;29.90;13.60;;;;;;;9.91;70.59;99740.77;105474;1264;61947;-80
2023/12/02 17:43:34;;;;;;;30.50;13.80;;;;;;;10.09;69.89;99767.94;105546;1269;60006;-79
2023/12/02 17:46:08;;;;;;;33.40;14.50;;;;;;;10.27;68.87;99784.83;105441;1264;72927;-80
2023/12/02 17:48:41;;;;;;;38.10;14.80;;;;;;;10.35;68.15;99784.33;105756;1265;68813;-81
2023/12/02 17:51:21;;;;;;;28.50;13.60;;;;;;;10.33;68.47;99781.30;105692;1264;74996;-79
2023/12/02 17:54:02;;;;;;;28.40;12.90;;;;;;;10.50;67.37;99772.16;105793;1264;61541;-79
2023/12/02 17:56:36;;;;;;;29.00;13.30;;;;;;;10.66;66.10;99775.48;105794;1266;62375;-80
2023/12/02 17:59:11;;;;;;;31.90;12.80;;;;;;;10.62;66.09;99781.17;105712;1260;74304;-79
2023/12/02 18:01:51;;;;;;;31.90;14.50;;;;;;;10.67;65.91;99777.16;106035;1257;70559;-78
2023/12/02 18:04:32;;;;;;;29.50;14.00;;;;;;;10.79;65.31;99766.88;105888;1258;74975;-81
2023/12/02 18:07:06;;;;;;;32.10;14.30;;;;;;;10.81;64.97;99768.04;106116;1257;59666;-81
2023/12/02 18:09:40;;;;;;;29.70;14.10;;;;;;;10.87;64.74;99763.56;105866;1257;60950;-79
2023/12/02 18:12:20;;;;;;;31.60;13.00;;;;;;;10.61;65.83;99743.48;105825;1264;75573;-79
2023/12/02 18:15:00;;;;;;;34.10;14.10;;;;;;;10.45;67.52;99729.73;105972;1258;67454;-79
2023/12/02 18:17:34;;;;;;;34.20;12.80;;;;;;;10.26;69.00;99717.05;105942;1257;75170;-79
2023/12/02 18:20:08;;;;;;;29.20;13.50;;;;;;;10.41;68.29;99716.80;105867;1258;60378;-81
2023/12/02 18:22:48;;;;;;;29.30;14.40;;;;;;;10.42;68.48;99729.34;106012;1258;60135;-80
2023/12/02 18:25:29;;;;;;;31.40;13.60;;;;;;;10.60;67.35;99731.30;106102;1257;75373;-79
2023/12/02 18:28:03;;;;;;;29.60;13.10;;;;;;;10.41;68.36;99722.80;106016;1262;67937;-81
2023/12/02 18:30:37;;;;;;;32.40;14.50;;;;;;;10.54;67.68;99705.44;105893;1262;71532;-80
2023/12/02 18:33:17;;;;;;;31.50;13.00;;;;;;;10.45;68.16;99701.88;105972;1260;62016;-80
2023/12/02 18:35:58;;;;;;;30.20;12.60;;;;;;;10.50;67.86;99695.03;105924;1256;60025;-80
2023/12/02 18:38:32;;;;;;;29.00;12.50;;;;;;;10.66;66.95;99693.73;105962;1256;71857;-81
2023/12/02 18:41:05;;;;;;;31.00;12.80;;;;;;;10.79;66.02;99681.49;105847;1257;71806;-81
2023/12/02 18:43:45;;;;;;;27.00;10.90;;;;;;;10.57;66.65;99675.23;105957;1262;72773;-81
2023/12/02 18:46:26;;;;;;;28.30;11.90;;;;;;;10.04;70.43;99675.79;105899;1256;62748;-80
2023/12/02 18:49:00;;;;;;;26.90;12.10;;;;;;;9.52;75.35;99690.33;105975;1257;59999;-80
2023/12/02 18:51:34;;;;;;;30.20;13.10;;;;;;;9.48;76.52;99694.79;105801;1257;73051;-81
2023/12/02 18:54:14;;;;;;;29.00;13.60;;;;;;;9.46;76.91;99686.68;106086;1260;69941;-79
2023/12/02 18:56:55;;;;;;;26.30;11.90;;;;;;;9.37;78.33;99676.16;105822;1262;73107;-80
2023/12/02 18:59:28;;;;;;;28.80;12.30;;;;;;;9.38;78.47;99667.74;105933;1257;59810;-79
2023/12/02 19:02:02;;;;;;;27.20;12.60;;;;;;;9.18;79.92;99660.67;105945;1257;61042;-79
2023/12/02 19:04:42;;;;;;;30.30;13.10;;;;;;;9.01;81.71;99655.27;105906;1260;73903;-79
2023/12/02 19:07:22;;;;;;;27.90;12.30;;;;;;;8.96;82.57;99653.69;105889;1257;69501;-80
2023/12/02 19:09:56;;;;;;;29.40;12.90;;;;;;;8.96;82.69;99658.91;105912;1258;72164;-81
2023/12/02 19:12:31;;;;;;;29.60;12.60;;;;;;;8.95;83.09;99654.52;105997;1258;62805;-80
2023/12/02 19:15:12;;;;;;;24.50;11.80;;;;;;;8.98;82.92;99645.33;105993;1257;61133;-79
2023/12/02 19:17:51;;;;;;;28.60;12.30;;;;;;;8.90;83.74;99638.93;105920;1258;72030;-79
2023/12/02 19:20:25;;;;;;;25.70;12.60;;;;;;;8.82;84.75;99630.56;105898;1257;71237;-80
2023/12/02 19:22:59;;;;;;;27.70;13.30;;;;;;;8.85;84.63;99632.55;106065;1256;75313;-79
2023/12/02 19:25:39;;;;;;;28.40;13.20;;;;;;;8.67;86.18;99617.91;105884;1257;59805;-80
2023/12/02 19:28:19;;;;;;;25.70;11.50;;;;;;;8.69;86.35;99607.92;105907;1257;61153;-80
2023/12/02 19:30:53;;;;;;;26.10;11.40;;;;;;;8.70;86.58;99596.91;105839;1256;74132;-81
2023/12/02 19:33:27;;;;;;;26.80;11.70;;;;;;;8.75;86.17;99600.11;105921;1257;69963;-80
2023/12/02 19:36:08;;;;;;;33.30;12.30;;;;;;;8.80;86.15;99610.33;105776;1261;73568;-79
2023/12/02 19:38:47;;;;;;;28.30;12.20;;;;;;;8.71;87.01;99606.75;105856;1256;59717;-79
2023/12/02 19:41:23;;;;;;;29.00;12.30;;;;;;;8.76;86.65;99605.73;105828;1261;60551;-80
2023/12/02 19:43:57;;;;;;;23.90;10.80;;;;;;;8.74;87.11;99607.00;105967;1257;75134;-80
2023/12/02 19:46:36;;;;;;;24.90;10.90;;;;;;;8.78;86.89;99615.56;105826;1256;71135;-80
2023/12/02 19:49:17;;;;;;;21.30;10.50;;;;;;;8.83;86.45;99620.59;105898;1256;74814;-81
2023/12/02 19:51:51;;;;;;;27.60;10.50;;;;;;;8.79;87.05;99609.68;105934;1257;60750;-80
2023/12/02 19:54:25;;;;;;;27.00;11.50;;;;;;;8.84;86.31;99599.98;105948;1256;61031;-81
2023/12/02 19:57:05;;;;;;;25.90;11.70;;;;;;;8.74;87.38;99591.64;105891;1259;72781;-80
2023/12/02 19:59:46;;;;;;;22.70;9.90;;;;;;;8.78;87.13;99582.77;105905;1262;70691;-81
2023/12/02 20:02:19;;;;;;;26.00;11.00;;;;;;;8.81;86.85;99580.06;105949;1256;74829;-80
2023/12/02 20:04:53;;;;;;;26.90;12.60;;;;;;;8.77;87.28;99581.80;106293;1257;61761;-80
2023/12/02 20:07:33;;;;;;;22.80;11.50;;;;;;;8.80;87.33;99593.81;105943;1260;59958;-80
2023/12/02 20:10:13;;;;;;;22.50;9.50;;;;;;;8.79;87.31;99596.22;106295;1262;75256;-80
2023/12/02 20:12:47;;;;;;;25.40;10.60;;;;;;;8.76;87.83;99599.94;106045;1262;70202;-80
2023/12/02 20:15:22;;;;;;;20.40;10.10;;;;;;;8.91;86.90;99589.38;105933;1258;72645;-80
2023/12/02 20:18:02;;;;;;;23.90;10.70;;;;;;;8.97;86.25;99572.16;106482;1257;60366;-80
2023/12/02 20:20:42;;;;;;;23.90;10.00;;;;;;;8.97;86.08;99560.81;106080;1256;59779;-80
2023/12/02 20:23:21;;;;;;;24.30;10.60;;;;;;;9.02;85.97;99568.50;106242;1256;75063;-80
2023/12/02 20:25:55;;;;;;;23.90;10.40;;;;;;;8.98;86.18;99571.98;106007;1258;69355;-80
2023/12/02 20:28:35;;;;;;;22.70;10.20;;;;;;;8.87;87.12;99572.82;106158;1257;73632;-80
2023/12/02 20:31:15;;;;;;;26.80;10.60;;;;;;;8.88;87.66;99562.46;106084;1257;61287;-80
2023/12/02 20:33:49;;;;;;;26.20;11.40;;;;;;;8.95;87.19;99548.96;106254;1256;62007;-80
2023/12/02 20:36:23;;;;;;;23.50;11.20;;;;;;;8.95;86.95;99537.41;106023;1259;75399;-80
2023/12/02 20:39:03;;;;;;;23.80;10.50;;;;;;;9.01;86.70;99532.34;106144;1256;68678;-80
2023/12/02 20:41:47;;;;;;;21.00;9.80;;;;;;;9.16;85.68;99524.72;106138;1256;74982;-80
2023/12/02 20:44:21;;;;;;;22.00;10.40;;;;;;;9.10;85.68;99519.02;106147;1258;63238;-81
2023/12/02 20:46:55;;;;;;;24.70;10.20;;;;;;;9.17;85.64;99513.54;106181;1257;59464;-81
2023/12/02 20:49:35;;;;;;;20.30;9.50;;;;;;;9.04;86.23;99510.26;106240;1257;72818;-81
2023/12/02 20:52:15;;;;;;;22.50;9.70;;;;;;;9.08;86.50;99512.40;106182;1261;67488;-81
2023/12/02 20:54:49;;;;;;;21.20;10.20;;;;;;;9.07;86.59;99507.88;106142;1257;70501;-81
2023/12/02 20:57:22;;;;;;;24.00;10.50;;;;;;;9.27;85.15;99488.80;106298;1257;61769;-80
2023/12/02 21:00:02;;;;;;;22.80;10.10;;;;;;;9.37;84.12;99482.84;106128;1256;59789;-80
2023/12/02 21:02:30;;;;;;;26.50;11.00;;;;;;;9.40;83.52;99484.54;106323;1256;73151;-80
2023/12/02 21:05:04;;;;;;;20.30;9.20;;;;;;;9.43;83.24;99479.74;106095;1257;67101;-80
2023/12/02 21:07:39;;;;;;;20.80;9.20;;;;;;;9.37;83.63;99474.55;106352;1256;72703;-82
2023/12/02 21:10:18;;;;;;;22.10;9.30;;;;;;;9.32;83.89;99482.70;106109;1256;59774;-81
2023/12/02 21:12:58;;;;;;;36.10;11.40;;;;;;;9.33;84.13;99475.82;106015;1257;59590;-80
2023/12/02 21:15:32;;;;;;;24.20;9.40;;;;;;;9.41;83.62;99473.90;106034;1260;73024;-80
2023/12/02 21:18:17;;;;;;;23.90;9.70;;;;;;;9.31;84.50;99469.02;106140;1256;68480;-81
2023/12/02 21:20:57;;;;;;;24.00;10.10;;;;;;;9.33;84.48;99469.65;105958;1260;72798;-80
2023/12/02 21:23:37;;;;;;;35.20;11.50;;;;;;;9.39;84.38;99470.43;106173;1256;60447;-80
2023/12/02 21:26:11;;;;;;;28.70;10.90;;;;;;;9.48;83.54;99466.96;106136;1257;60325;-80
2023/12/02 21:28:45;;;;;;;33.30;11.50;;;;;;;9.52;83.19;99464.23;106113;1256;73831;-80
2023/12/02 21:31:24;;;;;;;19.30;8.60;;;;;;;9.45;83.86;99465.31;106021;1256;68378;-80
2023/12/02 21:34:04;;;;;;;32.60;11.30;;;;;;;9.60;83.40;99461.17;106025;1256;71726;-80
2023/12/02 21:36:38;;;;;;;20.90;9.00;;;;;;;9.67;82.57;99455.88;106050;1256;60411;-80
2023/12/02 21:39:18;;;;;;;27.10;10.20;;;;;;;9.72;82.18;99439.65;105990;1256;60501;-80
2023/12/02 21:41:58;;;;;;;27.70;9.80;;;;;;;9.68;82.42;99438.56;106031;1257;72016;-80
2023/12/02 21:44:38;;;;;;;22.30;9.90;;;;;;;9.51;83.70;99440.64;105933;1256;68348;-80
2023/12/02 21:47:14;;;;;;;24.00;9.50;;;;;;;9.42;84.53;99430.46;106379;1262;71664;-80
2023/12/02 21:49:48;;;;;;;31.20;9.90;;;;;;;9.39;84.80;99419.45;106381;1256;60485;-80
2023/12/02 21:52:28;;;;;;;21.00;8.90;;;;;;;9.39;85.11;99407.38;106077;1256;60683;-80
2023/12/02 21:55:05;;;;;;;18.00;7.90;;;;;;;9.44;84.94;99404.48;106043;1256;73081;-80
2023/12/02 21:57:39;;;;;;;22.70;9.10;;;;;;;9.41;84.99;99406.60;106011;1255;69629;-80
2023/12/02 22:00:13;;;;;;;23.30;10.30;;;;;;;9.29;85.53;99398.98;105993;1256;73717;-80
2023/12/02 22:02:53;;;;;;;21.40;9.00;;;;;;;9.30;86.14;99384.98;106041;1257;63276;-80
2023/12/02 22:05:35;;;;;;;22.20;9.70;;;;;;;9.23;86.62;99375.25;105914;1256;60512;-80
2023/12/02 22:08:09;;;;;;;18.90;8.30;;;;;;;9.24;86.83;99371.70;106096;1256;72913;-80
2023/12/02 22:10:43;;;;;;;20.70;9.30;;;;;;;9.17;87.41;99370.27;105935;1256;68768;-81
2023/12/02 22:13:24;;;;;;;19.40;9.10;;;;;;;9.16;87.69;99356.17;106008;1256;72699;-81
2023/12/02 22:16:05;;;;;;;22.40;10.70;;;;;;;9.11;88.11;99363.89;105871;1256;60489;-80
2023/12/02 22:18:40;;;;;;;20.20;8.30;;;;;;;9.08;88.60;99361.69;105906;1256;60489;-80
2023/12/02 22:21:14;;;;;;;17.60;8.00;;;;;;;9.05;89.03;99351.00;105990;1260;73794;-80
2023/12/02 22:23:54;;;;;;;19.70;8.40;;;;;;;9.02;89.55;99350.50;105985;1260;67691;-80
2023/12/02 22:26:34;;;;;;;17.10;8.10;;;;;;;9.03;89.44;99343.89;105982;1258;71435;-80
2023/12/02 22:29:09;;;;;;;21.50;8.60;;;;;;;9.06;89.53;99348.80;106018;1259;60335;-80
2023/12/02 22:31:43;;;;;;;19.00;8.50;;;;;;;8.92;90.45;99354.08;106321;1256;60509;-81
2023/12/02 22:34:23;;;;;;;16.40;8.00;;;;;;;8.85;91.48;99353.53;106002;1256;73822;-80
2023/12/02 22:37:03;;;;;;;17.30;7.40;;;;;;;8.79;92.26;99342.23;105959;1256;68398;-80
2023/12/02 22:39:36;;;;;;;17.90;7.60;;;;;;;8.89;91.54;99336.92;105851;1259;71400;-80
2023/12/02 22:42:10;;;;;;;18.60;7.60;;;;;;;8.96;91.20;99331.95;105966;1261;60439;-81
2023/12/02 22:44:50;;;;;;;16.50;7.40;;;;;;;8.98;90.97;99322.81;106117;1256;60290;-80
2023/12/02 22:47:29;;;;;;;15.70;6.60;;;;;;;8.89;91.78;99323.56;106079;1256;73924;-81
2023/12/02 22:50:04;;;;;;;15.30;6.90;;;;;;;8.92;91.92;99313.01;105880;1260;66464;-81
2023/12/02 22:52:31;;;;;;;20.80;7.30;;;;;;;8.89;92.33;99307.66;105813;1256;71461;-81
2023/12/02 22:55:05;;;;;;;12.20;6.10;;;;;;;8.97;92.05;99306.48;105872;1256;63066;-80
2023/12/02 22:57:45;;;;;;;18.90;7.30;;;;;;;9.08;91.49;99314.39;106144;1256;60629;-80
2023/12/02 23:00:30;;;;;;;13.10;6.80;;;;;;;9.08;91.67;99321.80;106029;1259;73872;-81
2023/12/02 23:03:05;;;;;;;14.40;6.50;;;;;;;9.02;91.99;99314.95;106013;1255;68375;-80
2023/12/02 23:05:45;;;;;;;9.80;5.70;;;;;;;9.11;91.92;99316.80;105934;1260;72615;-80
2023/12/02 23:08:26;;;;;;;14.30;5.80;;;;;;;9.63;87.84;99317.92;105971;1256;60430;-80
2023/12/02 23:11:01;;;;;;;18.70;7.10;;;;;;;9.54;88.30;99316.13;106081;1260;60360;-81
2023/12/02 23:13:39;;;;;;;11.30;5.30;;;;;;;9.41;89.21;99311.05;105905;1256;73838;-81
2023/12/02 23:16:40;;;;;;;11.50;5.60;;;;;;;9.51;88.61;99298.77;105899;1257;68573;-80
2023/12/02 23:19:34;;;;;;;10.40;5.50;;;;;;;9.62;87.77;99296.34;106052;1256;72357;-80
2023/12/02 23:22:14;;;;;;;10.50;5.30;;;;;;;9.53;88.39;99297.05;105963;1256;60499;-81
2023/12/02 23:24:48;;;;;;;11.50;5.50;;;;;;;9.49;88.62;99285.77;106011;1256;60747;-81
2023/12/02 23:27:33;;;;;;;12.10;5.50;;;;;;;9.43;89.04;99276.88;106035;1256;74147;-81
2023/12/02 23:30:16;;;;;;;13.20;6.10;;;;;;;9.42;89.06;99267.91;105856;1256;68425;-81
2023/12/02 23:32:57;;;;;;;11.90;5.90;;;;;;;9.45;88.85;99252.21;106081;1259;72722;-81
2023/12/02 23:35:37;;;;;;;11.80;5.30;;;;;;;9.49;88.68;99250.55;105985;1256;60746;-81